Masset, Canada
Current Conditions -  °F | °C
As of 3:00 PM on Tuesday 25 Nov 2014 (Local Time) from CZMT Reporting Station
Broken Clouds Broken Clouds  
Wind Chill: 43°   Ceiling: 4000
Heat Index: 43°   Visibility: 15mi
Dew Point: 41°   Wind: 3mph
Humidity: 93%   Direction: 190°S
Pressure: 30.17"   Gusts: NA
Location:  54.02°N, 132.15°W
Report Text: CZMT 252300Z 19003KT 15SM SCT015 BKN040 06/05 A3017 RMK SC3SC3 SLP218
Loading
Personal Weather Stations






























Interactive Weather Map New forecast layout! Learn more

10-Day Weather Forecast

Advertisements
Track Severe Weather on mobile